Oneco, Florida
Current Conditions -  °F | °C
As of 11:53 AM on Monday 22 Dec 2014 (Local Time) from KSRQ Reporting Station
Clear Clear  
Wind Chill: 76°   Ceiling: Unl
Heat Index: 76°   Visibility: 10mi
Dew Point: 68°   Wind: 20mph
Humidity: 76%   Direction: 180°S
Pressure: 29.97"   Gusts: 26mph
Location:  27.45°N, 82.55°W
Report Text: KSRQ 221653Z 18017G23KT 10SM CLR 24/20 A2997 RMK AO2 SLP147 T02440200
Loading
Personal Weather Stations






























Interactive Weather Map New forecast layout! Learn more

10-Day Weather Forecast

Advertisements
Track Severe Weather on mobile